Terminal Aerodrome Forecast
Issued by NWS

Home | Current Version | Previous Version | Text Only | Print | Product List | Glossary On
Versions: 1 2 3 4 5 6 7 8 9 10 11 12 13 14 15 16
000
FTUS43 KMQT 301500 AAA
TAFCMX
TAF AMD
KCMX 301522Z 3015/3112 25007KT 6SM -RA BKN007 OVC014
     FM301800 30010G20KT 6SM -SHRA OVC015
     FM302300 33011G16KT 6SM -SHRASN OVC015
     FM310200 01017G27KT 2SM -SHSN OVC015
     FM310400 01020G30KT 3SM -SHSN OVC020=

USA.gov is the U.S. government's official web portal to all federal, state and local government web resources and services.